Time;durP1;ratioP1;P1;durP2;ratioP2;P2;SDS_P1;SDS_P2;PMS_P1;PMS_P2;Temp;Humidity;BMP_temperature;BMP_pressure;BME280_temperature;BME280_humidity;BME280_pressure;Samples;Min_cycle;Max_cycle;Signal;HPM_P1;HPM_P2
2021/12/05 00:17:41;;;;;;;0.37;0.37;;;3.40;99.90;;;;;;5023356;28;20207;-65
2021/12/05 00:23:23;;;;;;;0.20;0.20;;;3.50;99.90;;;;;;5022267;28;20306;-66
2021/12/05 00:26:13;;;;;;;0.70;0.70;;;3.40;99.90;;;;;;5021715;28;20203;-66
2021/12/05 00:29:10;;;;;;;1.10;1.10;;;3.40;99.90;;;;;;5022011;28;20265;-66
2021/12/05 01:12:18;;;;;;;1.33;1.23;;;3.40;99.90;;;;;;5025740;28;20210;-67
2021/12/05 01:15:28;;;;;;;0.87;0.87;;;3.30;99.90;;;;;;5023147;28;20210;-66
2021/12/05 01:18:16;;;;;;;1.27;1.23;;;3.30;99.90;;;;;;5024558;28;20199;-67
2021/12/05 01:21:07;;;;;;;1.07;1.00;;;3.30;99.90;;;;;;5024615;28;20234;-67
2021/12/05 01:24:02;;;;;;;0.90;0.90;;;3.30;99.90;;;;;;5023518;28;20286;-67
2021/12/05 01:38:27;;;;;;;1.20;1.20;;;3.40;99.90;;;;;;5026466;28;20281;-67
2021/12/05 01:53:12;;;;;;;0.80;0.80;;;3.50;99.90;;;;;;5025553;28;20226;-67
2021/12/05 02:41:07;;;;;;;0.60;0.60;;;2.90;99.90;;;;;;5024821;28;20230;-69
2021/12/05 02:44:01;;;;;;;2.30;1.00;;;2.90;99.90;;;;;;5024970;28;20275;-69
2021/12/05 02:47:04;;;;;;;0.70;0.70;;;2.90;99.90;;;;;;5023447;28;20314;-68
2021/12/05 02:49:52;;;;;;;0.97;0.80;;;2.90;99.90;;;;;;5022763;28;20284;-67
2021/12/05 02:52:40;;;;;;;0.20;0.20;;;2.80;99.90;;;;;;5025004;28;20207;-68
2021/12/05 02:55:37;;;;;;;0.60;0.60;;;2.70;99.90;;;;;;5022668;28;21059;-68
2021/12/05 03:01:16;;;;;;;0.50;0.50;;;2.60;99.90;;;;;;5027391;28;20198;-67
2021/12/05 03:04:01;;;;;;;3.70;0.80;;;2.60;99.90;;;;;;5023354;28;20381;-67
2021/12/05 03:06:53;;;;;;;0.30;0.30;;;2.60;99.90;;;;;;5023404;28;20228;-67
2021/12/05 03:09:40;;;;;;;0.50;0.40;;;2.50;99.90;;;;;;5024837;28;20202;-68
2021/12/05 03:12:28;;;;;;;2.73;0.67;;;2.60;99.90;;;;;;5022283;28;20203;-67
2021/12/05 03:15:15;;;;;;;2.53;0.50;;;2.40;99.90;;;;;;5022467;28;20250;-69
2021/12/05 03:18:01;;;;;;;0.50;0.50;;;2.50;99.90;;;;;;5024109;28;20215;-69
2021/12/05 03:20:48;;;;;;;0.70;0.70;;;2.50;99.90;;;;;;5021908;28;20326;-68
2021/12/05 03:23:32;;;;;;;0.60;0.60;;;2.40;99.90;;;;;;5022838;28;20258;-68
2021/12/05 03:26:21;;;;;;;0.60;0.60;;;2.40;99.90;;;;;;5023241;28;20215;-68
2021/12/05 03:29:09;;;;;;;0.40;0.40;;;2.30;99.90;;;;;;5022736;28;20313;-68
2021/12/05 03:31:56;;;;;;;0.97;0.97;;;2.40;99.90;;;;;;5023071;28;20202;-68
2021/12/05 03:34:41;;;;;;;1.40;0.70;;;2.40;99.90;;;;;;5022667;28;20207;-69
2021/12/05 03:37:25;;;;;;;0.77;0.57;;;2.30;99.90;;;;;;5023173;28;20268;-68
2021/12/05 03:40:10;;;;;;;0.83;0.57;;;2.20;99.90;;;;;;5023786;28;20238;-68
2021/12/05 03:42:56;;;;;;;1.00;0.50;;;2.30;99.90;;;;;;5021542;28;20238;-68
2021/12/05 03:45:44;;;;;;;0.40;0.40;;;2.30;99.90;;;;;;5021716;28;20294;-68
2021/12/05 03:48:33;;;;;;;0.47;0.33;;;2.30;99.90;;;;;;5003457;28;20326;-68
2021/12/05 03:51:19;;;;;;;0.10;0.10;;;2.30;99.90;;;;;;5002165;28;20379;-68
2021/12/05 03:54:06;;;;;;;0.17;0.17;;;2.30;99.90;;;;;;5002475;28;20214;-68
2021/12/05 03:56:52;;;;;;;0.27;0.27;;;2.20;99.90;;;;;;5003090;28;20198;-69
2021/12/05 03:59:37;;;;;;;0.30;0.30;;;2.20;99.90;;;;;;5001915;28;20199;-68
2021/12/05 04:02:22;;;;;;;0.77;0.73;;;2.20;99.90;;;;;;5003199;28;20194;-68
2021/12/05 04:05:07;;;;;;;0.60;0.60;;;2.20;99.90;;;;;;5002146;28;20199;-68
2021/12/05 04:07:54;;;;;;;0.33;0.33;;;2.20;99.90;;;;;;5003024;28;20287;-68
2021/12/05 04:10:42;;;;;;;0.43;0.33;;;2.10;99.90;;;;;;5003841;28;20215;-68
2021/12/05 04:13:28;;;;;;;0.53;0.53;;;2.10;99.90;;;;;;5001926;28;20207;-68
2021/12/05 04:16:15;;;;;;;0.27;0.27;;;2.10;99.90;;;;;;5002581;28;20259;-69
2021/12/05 04:19:00;;;;;;;0.77;0.30;;;2.10;99.90;;;;;;5017222;28;20199;-67
2021/12/05 04:21:44;;;;;;;3.90;0.43;;;2.10;99.90;;;;;;5022028;28;20230;-67
2021/12/05 04:24:28;;;;;;;0.60;0.60;;;2.10;99.90;;;;;;5017153;28;20207;-67
2021/12/05 04:27:14;;;;;;;2.03;0.57;;;2.00;99.90;;;;;;5021913;28;20291;-67
2021/12/05 04:29:59;;;;;;;0.23;0.23;;;2.00;99.90;;;;;;5021321;28;20202;-67
2021/12/05 04:32:44;;;;;;;2.50;1.10;;;2.00;99.90;;;;;;5021475;28;20333;-67
2021/12/05 04:35:28;;;;;;;0.47;0.40;;;2.00;99.90;;;;;;5019114;28;20198;-67
2021/12/05 04:38:13;;;;;;;5.03;0.63;;;2.10;99.90;;;;;;5019099;28;20191;-67
2021/12/05 04:40:58;;;;;;;0.57;0.57;;;2.10;99.90;;;;;;5022305;28;20190;-66
2021/12/05 04:43:43;;;;;;;0.17;0.17;;;2.00;99.90;;;;;;5024819;28;20187;-67
2021/12/05 04:46:28;;;;;;;0.20;0.20;;;2.00;99.90;;;;;;5022561;28;20187;-66
2021/12/05 04:49:15;;;;;;;0.70;0.70;;;2.00;99.90;;;;;;5024291;28;20257;-67
2021/12/05 04:52:01;;;;;;;0.10;0.10;;;2.00;99.90;;;;;;5023746;28;20349;-66
2021/12/05 04:54:45;;;;;;;1.00;0.40;;;2.00;99.90;;;;;;5023072;28;20199;-67
2021/12/05 04:57:30;;;;;;;0.30;0.30;;;2.00;99.90;;;;;;5023638;28;20242;-67
2021/12/05 05:00:21;;;;;;;0.50;0.50;;;1.90;99.90;;;;;;5023192;28;20183;-67
2021/12/05 05:03:06;;;;;;;0.73;0.73;;;2.00;99.90;;;;;;5021121;28;20234;-66
2021/12/05 05:06:00;;;;;;;0.20;0.20;;;2.00;99.90;;;;;;5021692;28;20387;-66
2021/12/05 05:08:50;;;;;;;0.30;0.30;;;2.00;99.90;;;;;;5022667;28;20273;-67
2021/12/05 05:11:34;;;;;;;0.20;0.20;;;2.00;99.90;;;;;;5024081;28;20195;-66
2021/12/05 05:14:19;;;;;;;0.70;0.70;;;2.00;99.90;;;;;;5023666;28;20190;-67
2021/12/05 05:17:03;;;;;;;3.37;0.40;;;1.90;99.90;;;;;;5024706;28;20191;-68
2021/12/05 05:19:52;;;;;;;1.00;0.60;;;1.90;99.90;;;;;;5025938;28;20215;-66
2021/12/05 05:22:45;;;;;;;1.63;0.33;;;1.90;99.90;;;;;;5023303;28;20218;-67
2021/12/05 05:43:34;;;;;;;0.70;0.53;;;2.20;99.90;;;;;;5024844;28;20199;-67
2021/12/05 05:46:23;;;;;;;0.17;0.17;;;2.30;99.90;;;;;;5025850;28;20202;-68
2021/12/05 05:49:15;;;;;;;0.37;0.37;;;2.30;99.90;;;;;;5024973;28;20226;-67
2021/12/05 05:52:02;;;;;;;4.23;0.47;;;2.30;99.90;;;;;;5025195;28;20354;-67
2021/12/05 05:54:49;;;;;;;0.30;0.30;;;2.30;99.90;;;;;;5025637;28;20214;-67
2021/12/05 05:57:40;;;;;;;0.53;0.47;;;2.30;99.90;;;;;;5025849;28;20330;-67
2021/12/05 06:00:38;;;;;;;0.47;0.47;;;2.40;99.90;;;;;;5024559;28;20199;-66
2021/12/05 06:03:23;;;;;;;4.13;0.30;;;2.40;99.90;;;;;;5026275;28;20273;-67
2021/12/05 06:06:10;;;;;;;0.33;0.33;;;2.40;99.90;;;;;;5024850;28;20206;-67
2021/12/05 06:08:55;;;;;;;0.47;0.47;;;2.40;99.90;;;;;;5025283;28;20257;-67
2021/12/05 06:11:39;;;;;;;0.27;0.27;;;2.40;99.90;;;;;;5026298;28;20203;-68
2021/12/05 06:14:25;;;;;;;2.53;0.60;;;2.40;99.90;;;;;;5024019;28;20191;-67
2021/12/05 06:17:10;;;;;;;0.60;0.60;;;2.40;99.90;;;;;;5025052;28;20198;-67
2021/12/05 06:19:54;;;;;;;8.97;0.50;;;2.40;99.90;;;;;;5025831;28;20270;-67
2021/12/05 06:22:39;;;;;;;0.83;0.83;;;2.40;99.90;;;;;;5024007;28;20191;-68
2021/12/05 06:25:27;;;;;;;0.97;0.50;;;2.40;99.90;;;;;;5024833;28;20195;-67
2021/12/05 06:28:14;;;;;;;0.30;0.30;;;2.40;99.90;;;;;;5024840;28;20217;-67
2021/12/05 06:31:13;;;;;;;0.57;0.57;;;2.40;99.90;;;;;;5023630;28;20253;-66
2021/12/05 06:48:31;;;;;;;0.53;0.40;;;2.30;99.90;;;;;;5024801;28;20293;-66
2021/12/05 06:51:21;;;;;;;0.57;0.50;;;2.30;99.90;;;;;;5023389;28;20277;-67
2021/12/05 06:54:06;;;;;;;0.87;0.60;;;2.30;99.90;;;;;;5021753;28;20191;-66
2021/12/05 06:56:51;;;;;;;0.27;0.27;;;2.30;99.90;;;;;;5022981;28;20195;-66
2021/12/05 06:59:39;;;;;;;1.83;0.47;;;2.20;99.90;;;;;;5025144;28;20195;-66
2021/12/05 07:02:24;;;;;;;0.30;0.17;;;2.10;99.90;;;;;;5019634;28;20191;-66
2021/12/05 07:08:09;;;;;;;0.93;0.40;;;2.10;99.90;;;;;;5024632;28;20280;-67
2021/12/05 07:11:12;;;;;;;1.73;0.63;;;2.20;99.90;;;;;;5022147;28;20207;-66
2021/12/05 07:17:07;;;;;;;0.50;0.50;;;2.10;99.90;;;;;;5024741;28;20202;-65
2021/12/05 07:20:10;;;;;;;0.30;0.30;;;2.10;99.90;;;;;;5019223;28;20277;-66
2021/12/05 07:25:52;;;;;;;0.23;0.23;;;2.10;99.90;;;;;;5022132;28;20270;-65
2021/12/05 07:40:52;;;;;;;1.00;0.93;;;2.20;99.90;;;;;;5019853;28;20268;-68
2021/12/05 07:43:36;;;;;;;0.67;0.43;;;2.10;99.90;;;;;;5023744;28;20275;-67
2021/12/05 07:46:21;;;;;;;0.73;0.73;;;2.20;99.90;;;;;;5021561;28;20255;-67
2021/12/05 07:49:10;;;;;;;1.47;1.27;;;2.20;99.90;;;;;;5021052;28;20214;-67
2021/12/05 07:51:54;;;;;;;0.67;0.67;;;2.20;99.90;;;;;;5022214;28;20305;-67
2021/12/05 07:54:41;;;;;;;0.70;0.70;;;2.30;99.90;;;;;;5022838;28;20230;-67
2021/12/05 07:57:32;;;;;;;4.93;1.50;;;2.30;99.90;;;;;;5021020;28;20249;-67
2021/12/05 08:00:50;;;;;;;0.93;0.70;;;2.30;99.90;;;;;;5024095;28;20274;-68
2021/12/05 08:14:26;;;;;;;0.77;0.77;;;2.30;99.90;;;;;;5023582;28;20252;-67
2021/12/05 08:15:47;;;;;;;0.70;0.70;;;2.50;99.90;;;;;;5023692;28;20276;-66
2021/12/05 08:18:32;;;;;;;0.97;0.90;;;2.60;99.90;;;;;;5026561;28;20209;-67
2021/12/05 08:21:17;;;;;;;1.80;1.37;;;2.60;99.90;;;;;;5028196;28;20194;-67
2021/12/05 08:24:02;;;;;;;2.77;1.13;;;2.60;99.90;;;;;;5025966;28;21011;-67
2021/12/05 08:26:49;;;;;;;4.30;1.50;;;2.60;99.90;;;;;;5026900;28;20275;-66
2021/12/05 08:29:52;;;;;;;1.87;1.30;;;2.60;99.90;;;;;;5027959;28;20261;-66
2021/12/05 08:33:15;;;;;;;0.80;0.80;;;2.70;99.90;;;;;;5026091;28;20313;-67
2021/12/05 10:07:48;;;;;;;1.17;1.10;;;4.30;99.90;;;;;;5025641;28;20329;-68
2021/12/05 10:13:51;;;;;;;0.50;0.50;;;4.40;99.90;;;;;;5026267;28;20246;-67
2021/12/05 10:37:46;;;;;;;1.07;0.97;;;4.90;99.90;;;;;;5024633;28;20206;-68
2021/12/05 10:41:03;;;;;;;0.57;0.57;;;4.90;99.90;;;;;;5025565;28;20245;-68
2021/12/05 10:43:54;;;;;;;2.40;1.90;;;5.00;99.90;;;;;;5024432;28;20222;-68
2021/12/05 10:46:41;;;;;;;1.30;1.20;;;5.00;99.90;;;;;;5023580;28;20245;-68
2021/12/05 10:49:26;;;;;;;1.80;1.70;;;5.10;99.90;;;;;;5024498;28;20202;-68
2021/12/05 10:52:16;;;;;;;0.80;0.80;;;5.10;99.90;;;;;;5024484;28;20199;-68
2021/12/05 10:55:01;;;;;;;1.43;1.10;;;5.00;99.90;;;;;;5024080;28;20241;-69
2021/12/05 10:57:54;;;;;;;1.37;1.27;;;5.20;99.90;;;;;;5026765;28;20285;-68
2021/12/05 11:00:38;;;;;;;1.27;1.03;;;4.90;99.90;;;;;;5023519;28;21043;-68
2021/12/05 11:03:24;;;;;;;1.13;0.90;;;4.70;99.90;;;;;;5024174;28;20195;-69
2021/12/05 11:06:19;;;;;;;0.90;0.90;;;4.50;99.90;;;;;;5026020;28;20251;-69
2021/12/05 11:09:06;;;;;;;5.83;1.27;;;4.50;99.90;;;;;;5022750;28;20227;-68
2021/12/05 11:11:55;;;;;;;1.20;1.10;;;4.50;99.90;;;;;;5023731;28;20218;-69
2021/12/05 11:14:49;;;;;;;1.37;1.27;;;4.60;99.90;;;;;;5024933;28;20218;-69
2021/12/05 11:17:38;;;;;;;1.27;0.90;;;4.70;99.90;;;;;;5020121;28;20187;-68
2021/12/05 11:20:31;;;;;;;3.27;1.43;;;4.70;99.90;;;;;;5005335;28;20298;-68
2021/12/05 11:23:19;;;;;;;2.50;1.63;;;4.50;99.90;;;;;;5007899;28;20203;-70
2021/12/05 11:26:18;;;;;;;1.20;1.20;;;4.50;99.90;;;;;;5003069;28;20199;-68
2021/12/05 11:29:03;;;;;;;0.83;0.83;;;4.40;99.90;;;;;;5006025;28;20278;-69
2021/12/05 11:31:51;;;;;;;2.07;1.50;;;4.40;99.90;;;;;;5005133;28;20277;-68
2021/12/05 11:34:35;;;;;;;2.07;1.90;;;4.50;99.90;;;;;;5005574;28;20277;-69
2021/12/05 11:37:20;;;;;;;1.37;1.37;;;4.60;99.90;;;;;;5004294;28;20291;-69
2021/12/05 11:40:06;;;;;;;1.10;1.10;;;4.60;99.90;;;;;;5004123;28;20210;-69
2021/12/05 11:43:02;;;;;;;3.10;1.40;;;4.70;99.90;;;;;;5002988;28;20204;-68
2021/12/05 11:46:08;;;;;;;1.47;1.37;;;4.60;99.90;;;;;;5004200;28;20239;-68
2021/12/05 11:49:05;;;;;;;0.93;0.93;;;4.50;99.90;;;;;;5003633;28;20223;-68
2021/12/05 11:51:58;;;;;;;1.60;1.50;;;4.40;99.90;;;;;;5001713;28;20254;-69
2021/12/05 11:54:46;;;;;;;1.10;1.10;;;4.30;99.90;;;;;;5009092;28;20192;-68
2021/12/05 11:57:36;;;;;;;0.80;0.80;;;4.40;99.90;;;;;;5011949;28;20191;-69
2021/12/05 12:00:23;;;;;;;0.87;0.87;;;4.40;99.90;;;;;;5003224;28;20195;-69
2021/12/05 12:03:07;;;;;;;3.50;1.37;;;4.40;99.90;;;;;;5011270;28;20191;-69
2021/12/05 12:05:52;;;;;;;1.20;1.20;;;4.30;99.90;;;;;;5012723;28;20190;-69
2021/12/05 12:08:37;;;;;;;1.60;1.27;;;4.40;99.90;;;;;;5014556;28;20222;-69
2021/12/05 12:11:26;;;;;;;0.97;0.87;;;4.50;99.90;;;;;;5020269;28;20226;-69
2021/12/05 12:14:10;;;;;;;1.90;1.63;;;4.50;99.90;;;;;;5022433;28;20203;-69
2021/12/05 12:16:58;;;;;;;5.30;1.30;;;4.60;99.90;;;;;;5003168;28;20274;-68
2021/12/05 12:19:54;;;;;;;3.70;0.90;;;4.60;99.90;;;;;;5023453;28;20198;-69
2021/12/05 12:22:40;;;;;;;2.67;1.40;;;4.50;99.90;;;;;;5004853;28;20246;-68
2021/12/05 12:25:33;;;;;;;1.60;1.33;;;4.50;99.90;;;;;;5005313;28;20241;-68
2021/12/05 12:28:18;;;;;;;0.50;0.50;;;4.50;99.90;;;;;;5004120;28;20625;-68
2021/12/05 12:31:09;;;;;;;0.93;0.90;;;4.40;99.90;;;;;;5002693;28;20275;-68
2021/12/05 12:34:08;;;;;;;1.57;1.20;;;4.40;99.90;;;;;;5007689;28;20198;-68
2021/12/05 12:37:05;;;;;;;1.53;1.43;;;4.40;99.90;;;;;;5024032;28;20198;-68
2021/12/05 12:39:51;;;;;;;1.43;1.10;;;4.50;99.90;;;;;;5002047;28;20207;-68
2021/12/05 12:42:40;;;;;;;1.40;1.40;;;4.50;99.90;;;;;;5006521;28;20245;-68
2021/12/05 12:45:24;;;;;;;0.93;0.90;;;4.50;99.90;;;;;;5026614;28;20210;-69
2021/12/05 12:48:15;;;;;;;1.33;1.20;;;4.50;99.90;;;;;;5032509;28;20231;-68
2021/12/05 12:51:00;;;;;;;1.17;1.17;;;4.60;99.90;;;;;;5038907;28;20670;-68
2021/12/05 12:53:44;;;;;;;1.47;1.37;;;4.60;99.90;;;;;;5028105;28;20206;-68
2021/12/05 12:56:30;;;;;;;0.73;0.73;;;4.40;99.90;;;;;;5041521;28;20216;-68
2021/12/05 12:59:17;;;;;;;1.60;1.03;;;4.50;99.90;;;;;;5026986;28;20196;-68
2021/12/05 13:05:24;;;;;;;0.73;0.73;;;4.50;99.90;;;;;;5026788;28;20259;-68
2021/12/05 13:11:17;;;;;;;0.80;0.80;;;4.60;99.90;;;;;;5023189;28;20206;-68
2021/12/05 13:14:05;;;;;;;0.70;0.70;;;4.50;99.90;;;;;;5026071;28;20199;-68
2021/12/05 13:16:49;;;;;;;1.20;1.20;;;4.50;99.90;;;;;;5024933;28;20203;-69
2021/12/05 13:19:34;;;;;;;2.43;0.67;;;4.50;99.90;;;;;;5024545;28;20199;-68
2021/12/05 13:22:18;;;;;;;0.80;0.80;;;4.30;99.90;;;;;;5024209;28;20199;-68
2021/12/05 13:25:08;;;;;;;1.73;0.90;;;4.40;99.90;;;;;;5038390;28;20190;-68
2021/12/05 13:27:53;;;;;;;2.00;1.47;;;4.40;99.90;;;;;;5026593;28;20641;-68
2021/12/05 13:30:40;;;;;;;0.50;0.50;;;4.30;99.90;;;;;;5031676;28;20195;-68
2021/12/05 13:33:30;;;;;;;1.07;0.80;;;4.30;99.90;;;;;;5035199;28;20185;-69
2021/12/05 13:36:35;;;;;;;0.73;0.73;;;4.40;99.90;;;;;;5038863;28;20260;-68
2021/12/05 13:39:38;;;;;;;0.57;0.53;;;4.30;99.90;;;;;;5014695;28;20202;-68
2021/12/05 13:42:34;;;;;;;1.40;1.30;;;4.30;99.90;;;;;;5036069;28;20193;-68
2021/12/05 13:45:27;;;;;;;0.93;0.93;;;4.30;99.90;;;;;;5028198;28;20203;-68
2021/12/05 13:48:24;;;;;;;1.10;1.10;;;4.40;99.90;;;;;;5040830;28;20217;-68
2021/12/05 13:51:09;;;;;;;0.83;0.67;;;4.40;99.90;;;;;;5031633;28;20265;-68
2021/12/05 13:53:59;;;;;;;1.03;0.97;;;4.40;99.90;;;;;;5033038;28;20203;-68
2021/12/05 13:56:44;;;;;;;1.37;1.30;;;4.30;99.90;;;;;;5026552;28;20226;-68
2021/12/05 13:59:28;;;;;;;1.57;1.47;;;4.20;99.90;;;;;;5027009;28;20352;-68
2021/12/05 14:02:14;;;;;;;3.43;0.93;;;4.20;99.90;;;;;;5036915;28;20245;-68
2021/12/05 14:05:28;;;;;;;1.27;1.17;;;4.20;99.90;;;;;;5025142;28;20195;-68
2021/12/05 14:08:13;;;;;;;0.53;0.53;;;4.10;99.90;;;;;;5028134;28;20293;-68
2021/12/05 14:10:58;;;;;;;0.83;0.83;;;4.10;99.90;;;;;;5028788;28;20233;-68
2021/12/05 14:13:42;;;;;;;0.77;0.77;;;4.10;99.90;;;;;;5011324;28;20198;-68
2021/12/05 14:16:34;;;;;;;0.83;0.83;;;4.00;99.90;;;;;;5035887;28;20202;-67
2021/12/05 14:19:23;;;;;;;1.33;0.80;;;3.90;99.90;;;;;;5027321;28;20223;-68
2021/12/05 14:22:12;;;;;;;1.43;0.90;;;4.00;99.90;;;;;;5026577;28;20249;-68
2021/12/05 14:24:59;;;;;;;1.47;1.40;;;3.90;99.90;;;;;;5021978;28;20218;-68
2021/12/05 14:27:51;;;;;;;1.50;1.33;;;3.90;99.90;;;;;;5018489;28;20360;-68
2021/12/05 14:30:38;;;;;;;2.47;0.67;;;3.90;99.90;;;;;;5035814;28;20249;-68
2021/12/05 14:33:23;;;;;;;1.00;1.00;;;3.80;99.90;;;;;;5021533;28;20200;-68
2021/12/05 14:36:22;;;;;;;1.47;1.30;;;3.80;99.90;;;;;;5014986;28;20227;-68
2021/12/05 14:39:18;;;;;;;1.40;1.40;;;3.70;99.90;;;;;;5024138;28;20263;-67
2021/12/05 14:42:18;;;;;;;1.60;1.50;;;3.60;99.90;;;;;;5018105;28;20283;-69
2021/12/05 14:45:14;;;;;;;1.50;1.40;;;3.60;99.90;;;;;;5007010;28;20192;-68
2021/12/05 14:48:03;;;;;;;1.30;1.20;;;3.60;99.90;;;;;;5013064;28;20277;-67
2021/12/05 14:50:51;;;;;;;1.87;1.50;;;3.60;99.90;;;;;;5011933;28;20302;-68
2021/12/05 14:53:40;;;;;;;1.77;1.67;;;3.60;99.90;;;;;;5011207;28;20290;-68
2021/12/05 14:56:30;;;;;;;6.37;1.93;;;3.60;99.90;;;;;;5004902;28;20201;-67
2021/12/05 14:59:15;;;;;;;1.50;1.40;;;3.50;99.90;;;;;;5004553;28;20203;-68
2021/12/05 15:02:04;;;;;;;2.50;1.40;;;3.50;99.90;;;;;;5003104;28;20250;-68
2021/12/05 15:04:52;;;;;;;3.23;1.50;;;3.40;99.90;;;;;;5005199;28;20202;-68
2021/12/05 15:07:36;;;;;;;1.80;1.70;;;3.40;99.90;;;;;;5003923;28;20251;-68
2021/12/05 15:10:21;;;;;;;1.93;1.83;;;3.30;99.90;;;;;;5003209;28;20246;-67
2021/12/05 15:13:05;;;;;;;2.87;1.87;;;3.20;99.90;;;;;;5005657;28;20203;-68
2021/12/05 15:15:51;;;;;;;1.93;1.83;;;3.20;99.90;;;;;;5003444;28;20195;-67
2021/12/05 15:18:39;;;;;;;1.67;1.53;;;3.30;99.90;;;;;;5003684;28;20216;-67
2021/12/05 15:21:23;;;;;;;1.93;1.63;;;3.20;99.90;;;;;;5005212;28;20223;-67
2021/12/05 15:24:13;;;;;;;2.00;1.90;;;3.20;99.90;;;;;;5003025;28;20195;-68
2021/12/05 15:27:00;;;;;;;1.80;1.70;;;3.20;99.90;;;;;;5003899;28;20258;-67
2021/12/05 15:29:57;;;;;;;3.70;2.40;;;3.10;99.90;;;;;;5004950;28;20200;-68
2021/12/05 15:32:42;;;;;;;2.70;1.83;;;3.10;99.90;;;;;;5002457;28;20199;-67
2021/12/05 15:35:28;;;;;;;4.03;2.70;;;3.10;99.90;;;;;;5004553;28;20223;-67
2021/12/05 15:38:18;;;;;;;2.80;2.53;;;3.00;99.90;;;;;;5004348;28;20235;-67
2021/12/05 15:41:07;;;;;;;3.90;2.50;;;3.00;99.90;;;;;;5002941;28;20191;-67
2021/12/05 15:43:51;;;;;;;4.23;3.90;;;3.00;99.90;;;;;;5004309;28;20203;-68
2021/12/05 15:46:36;;;;;;;5.63;3.23;;;2.90;99.90;;;;;;5003483;28;20327;-68
2021/12/05 15:49:21;;;;;;;4.57;2.83;;;2.90;99.90;;;;;;5002600;28;20235;-67
2021/12/05 15:52:05;;;;;;;2.37;2.23;;;2.90;99.90;;;;;;4985405;28;20212;-68
2021/12/05 15:54:51;;;;;;;2.53;2.10;;;2.90;99.90;;;;;;4997455;28;20226;-67
2021/12/05 15:57:42;;;;;;;4.47;2.40;;;2.90;99.90;;;;;;4984009;28;20203;-68
2021/12/05 16:00:31;;;;;;;3.03;1.90;;;2.90;99.90;;;;;;4985050;28;20200;-68
2021/12/05 16:03:18;;;;;;;2.10;2.10;;;2.90;99.90;;;;;;4983173;28;20196;-68
2021/12/05 16:06:04;;;;;;;3.33;2.57;;;2.90;99.90;;;;;;4984391;28;20192;-68
2021/12/05 16:08:50;;;;;;;1.87;1.77;;;2.90;99.90;;;;;;4984297;28;20367;-67
2021/12/05 16:11:35;;;;;;;2.87;2.30;;;2.90;99.90;;;;;;4982685;28;20200;-68
2021/12/05 16:14:32;;;;;;;2.53;2.33;;;2.90;99.90;;;;;;4984036;28;20282;-68
2021/12/05 16:17:23;;;;;;;3.87;3.00;;;2.90;99.90;;;;;;4984153;28;20191;-68
2021/12/05 16:20:21;;;;;;;4.07;2.63;;;2.90;99.90;;;;;;4983071;28;20599;-67
2021/12/05 16:23:08;;;;;;;2.97;2.77;;;2.80;99.90;;;;;;4984068;28;20240;-67
2021/12/05 16:26:01;;;;;;;4.20;3.30;;;2.80;99.90;;;;;;4984354;28;20399;-68
2021/12/05 16:28:48;;;;;;;3.30;3.00;;;2.70;99.90;;;;;;4982395;28;20224;-67
2021/12/05 16:31:35;;;;;;;8.87;3.30;;;2.60;99.90;;;;;;4984446;28;20235;-67
2021/12/05 16:34:24;;;;;;;4.70;2.47;;;2.60;99.90;;;;;;4984003;28;20207;-66
2021/12/05 16:37:08;;;;;;;5.90;3.63;;;2.60;99.90;;;;;;4983174;28;20288;-67
2021/12/05 16:39:57;;;;;;;3.57;2.93;;;2.60;99.90;;;;;;4988457;28;20247;-67
2021/12/05 16:42:44;;;;;;;3.10;2.80;;;2.60;99.90;;;;;;4986644;28;20227;-67
2021/12/05 16:45:37;;;;;;;2.70;2.50;;;2.50;99.90;;;;;;4987011;28;20283;-67
2021/12/05 16:48:23;;;;;;;6.00;3.37;;;2.50;99.90;;;;;;4988659;28;20227;-68
2021/12/05 16:51:10;;;;;;;6.30;4.20;;;2.40;99.90;;;;;;5000347;28;20231;-67
2021/12/05 16:54:04;;;;;;;3.37;3.07;;;2.40;99.90;;;;;;5020562;28;20199;-68
2021/12/05 16:56:58;;;;;;;10.53;3.53;;;2.30;99.90;;;;;;5007689;28;20258;-68
2021/12/05 16:59:44;;;;;;;4.60;2.97;;;2.30;99.90;;;;;;5005649;28;20280;-68
2021/12/05 17:02:32;;;;;;;2.97;2.70;;;2.20;99.90;;;;;;5020427;28;20278;-67
2021/12/05 17:05:22;;;;;;;3.57;3.27;;;2.20;99.90;;;;;;5007556;28;20191;-67
2021/12/05 17:08:13;;;;;;;2.97;2.73;;;2.10;99.90;;;;;;5005865;28;20286;-68
2021/12/05 17:11:04;;;;;;;5.03;2.87;;;2.10;99.90;;;;;;5020475;28;20243;-68
2021/12/05 17:13:53;;;;;;;5.33;3.40;;;2.00;99.90;;;;;;5007523;28;20192;-67
2021/12/05 17:16:41;;;;;;;5.57;3.37;;;2.00;99.90;;;;;;5005220;28;20227;-67
2021/12/05 17:19:29;;;;;;;4.00;3.63;;;1.90;99.90;;;;;;5006925;28;20276;-68
2021/12/05 17:22:13;;;;;;;3.23;3.03;;;1.90;99.90;;;;;;5006323;28;20316;-68
2021/12/05 17:24:57;;;;;;;2.97;2.23;;;1.80;99.90;;;;;;5005870;28;20291;-67
2021/12/05 17:27:47;;;;;;;3.37;3.17;;;1.80;99.90;;;;;;5007427;28;20423;-67
2021/12/05 17:30:33;;;;;;;3.13;2.90;;;1.70;99.90;;;;;;5005748;28;20239;-68
2021/12/05 17:33:27;;;;;;;6.37;3.73;;;1.70;99.90;;;;;;5005299;28;20211;-68
2021/12/05 17:36:29;;;;;;;4.07;3.77;;;1.60;99.90;;;;;;5021387;28;20199;-68
2021/12/05 17:39:22;;;;;;;5.63;3.80;;;1.60;99.90;;;;;;5005540;28;20194;-67
2021/12/05 17:42:15;;;;;;;3.10;2.80;;;1.60;99.90;;;;;;5005026;28;20211;-67
2021/12/05 17:45:03;;;;;;;4.00;2.73;;;1.60;99.90;;;;;;5007087;28;20223;-68
2021/12/05 17:47:49;;;;;;;3.00;2.70;;;1.70;99.90;;;;;;5006022;28;20324;-68
2021/12/05 17:50:33;;;;;;;2.60;2.40;;;1.70;99.90;;;;;;5003781;28;20325;-68
2021/12/05 17:53:18;;;;;;;4.10;2.47;;;1.70;99.90;;;;;;5006872;28;20235;-68
2021/12/05 17:56:12;;;;;;;3.77;3.43;;;1.60;99.90;;;;;;5018680;28;20291;-68
2021/12/05 17:59:12;;;;;;;3.77;3.47;;;1.60;99.90;;;;;;5005215;28;20195;-67
2021/12/05 18:05:11;;;;;;;6.40;4.27;;;1.60;99.90;;;;;;5007044;28;20203;-68
2021/12/05 18:07:59;;;;;;;5.00;3.60;;;1.60;99.90;;;;;;5019864;28;20231;-67
2021/12/05 18:10:49;;;;;;;5.03;3.80;;;1.60;99.90;;;;;;5020978;28;20227;-67
2021/12/05 18:13:36;;;;;;;4.27;3.83;;;1.60;99.90;;;;;;5005035;28;20232;-67
2021/12/05 18:16:25;;;;;;;4.17;3.77;;;1.70;99.90;;;;;;5005515;28;20223;-68
2021/12/05 18:19:14;;;;;;;5.13;4.30;;;1.70;99.90;;;;;;5006572;28;20200;-67
2021/12/05 18:21:59;;;;;;;6.43;4.40;;;1.80;99.90;;;;;;5003979;28;20238;-67
2021/12/05 18:24:45;;;;;;;5.87;4.50;;;1.90;99.90;;;;;;5005342;28;20192;-68
2021/12/05 18:27:29;;;;;;;3.47;3.17;;;2.00;99.90;;;;;;5005929;28;20191;-67
2021/12/05 18:30:17;;;;;;;5.50;3.87;;;2.00;99.90;;;;;;5003402;28;20300;-68
2021/12/05 18:33:05;;;;;;;14.10;5.53;;;2.00;99.90;;;;;;5005397;28;20700;-68
2021/12/05 18:35:49;;;;;;;7.07;4.43;;;2.10;99.90;;;;;;5005272;28;20196;-68
2021/12/05 18:38:33;;;;;;;14.23;6.43;;;2.10;99.90;;;;;;5004383;28;20199;-67
2021/12/05 18:41:18;;;;;;;10.63;5.90;;;2.10;99.90;;;;;;5005657;28;20196;-67
2021/12/05 18:44:06;;;;;;;11.83;6.10;;;2.10;99.90;;;;;;5004603;28;20199;-67
2021/12/05 18:46:54;;;;;;;5.87;4.10;;;2.10;99.90;;;;;;5004643;28;20256;-67
2021/12/05 18:49:38;;;;;;;9.17;4.57;;;2.00;99.90;;;;;;5020140;28;20347;-68
2021/12/05 18:52:24;;;;;;;9.03;5.83;;;2.10;99.90;;;;;;5004042;28;20202;-68
2021/12/05 18:55:13;;;;;;;8.40;4.77;;;2.10;99.90;;;;;;5004613;28;20192;-67
2021/12/05 18:57:59;;;;;;;6.23;4.20;;;2.10;99.90;;;;;;5005518;28;20199;-67
2021/12/05 19:07:01;;;;;;;8.70;5.77;;;2.10;99.90;;;;;;5007585;28;20273;-67
2021/12/05 19:12:36;;;;;;;7.13;4.63;;;2.10;99.90;;;;;;5005399;28;20263;-67
2021/12/05 19:15:23;;;;;;;4.03;3.50;;;2.10;99.90;;;;;;5005637;28;20199;-68
2021/12/05 19:18:07;;;;;;;5.30;4.37;;;2.10;99.90;;;;;;5003526;28;20439;-67
2021/12/05 19:20:52;;;;;;;9.17;5.27;;;2.10;99.90;;;;;;5004613;28;20282;-68
2021/12/05 19:23:37;;;;;;;7.80;3.90;;;2.10;99.90;;;;;;5004939;28;20246;-68
2021/12/05 19:26:22;;;;;;;5.33;4.63;;;2.10;99.90;;;;;;5002888;28;20227;-68
2021/12/05 19:29:07;;;;;;;10.00;5.10;;;2.20;99.90;;;;;;5004680;28;20224;-68
2021/12/05 19:31:54;;;;;;;9.17;6.17;;;2.10;99.90;;;;;;5003807;28;20195;-68
2021/12/05 19:34:38;;;;;;;14.90;5.27;;;2.10;99.90;;;;;;5002905;28;20223;-66
2021/12/05 19:37:24;;;;;;;5.73;5.17;;;2.10;99.90;;;;;;5005395;28;20313;-66
2021/12/05 19:40:12;;;;;;;17.13;5.37;;;2.10;99.90;;;;;;5003069;28;20280;-67
2021/12/05 19:42:57;;;;;;;9.13;3.53;;;2.10;99.90;;;;;;5003426;28;20211;-66
2021/12/05 19:45:42;;;;;;;9.57;5.80;;;2.10;99.90;;;;;;5005109;28;20191;-66
2021/12/05 19:48:27;;;;;;;5.40;4.50;;;2.10;99.90;;;;;;5002155;28;20223;-66
2021/12/05 19:51:12;;;;;;;5.70;4.67;;;2.10;99.90;;;;;;5003258;28;20236;-66
2021/12/05 19:53:58;;;;;;;8.00;4.80;;;2.10;99.90;;;;;;5004244;28;20222;-66
2021/12/05 19:56:44;;;;;;;6.00;4.77;;;2.00;99.90;;;;;;5016884;28;20203;-66
2021/12/05 19:59:29;;;;;;;5.80;4.67;;;2.10;99.90;;;;;;5004512;28;20231;-65
2021/12/05 20:02:14;;;;;;;5.40;4.10;;;2.10;99.90;;;;;;5003361;28;20262;-66
2021/12/05 20:04:59;;;;;;;4.97;4.13;;;2.10;99.90;;;;;;5002783;28;20191;-66
2021/12/05 20:07:48;;;;;;;11.33;5.57;;;2.10;99.90;;;;;;5005200;28;20261;-66
2021/12/05 20:10:34;;;;;;;3.53;3.00;;;2.10;99.90;;;;;;5002670;28;20290;-66
2021/12/05 20:13:19;;;;;;;6.03;4.90;;;2.10;99.90;;;;;;5002661;28;20211;-66
2021/12/05 20:16:04;;;;;;;7.23;3.97;;;2.10;99.90;;;;;;5004558;28;20195;-67
2021/12/05 20:18:48;;;;;;;8.37;4.43;;;2.10;99.90;;;;;;5002269;28;20334;-66